Time;durP1;ratioP1;P1;durP2;ratioP2;P2;SDS_P1;SDS_P2;PMS_P1;PMS_P2;Temp;Humidity;BMP_temperature;BMP_pressure;BME280_temperature;BME280_humidity;BME280_pressure;Samples;Min_cycle;Max_cycle;Signal;HPM_P1;HPM_P2
2022/11/08 00:03:41;;;;;;;6.50;2.40;;;12.30;99.90;;;;;;5113973;28;20269;-52
2022/11/08 00:14:19;;;;;;;2.97;1.70;;;12.40;99.90;;;;;;5113801;28;20288;-52
2022/11/08 00:16:44;;;;;;;7.20;1.95;;;12.30;99.90;;;;;;5113600;28;20207;-53
2022/11/08 00:19:10;;;;;;;7.13;2.72;;;12.30;99.90;;;;;;5113576;28;20640;-53
2022/11/08 00:21:35;;;;;;;4.65;2.05;;;12.40;99.90;;;;;;5113048;28;20304;-54
2022/11/08 00:24:01;;;;;;;9.80;2.35;;;12.40;99.90;;;;;;5092685;28;20512;-53
2022/11/08 00:26:27;;;;;;;9.25;2.55;;;12.30;99.90;;;;;;5092523;28;20173;-53
2022/11/08 00:28:53;;;;;;;6.60;2.38;;;12.30;99.90;;;;;;5093319;28;20166;-52
2022/11/08 00:31:19;;;;;;;7.38;2.30;;;12.30;99.90;;;;;;5093015;28;20162;-53
2022/11/08 00:33:44;;;;;;;10.18;2.55;;;12.30;99.90;;;;;;5092995;28;20170;-53
2022/11/08 00:36:10;;;;;;;8.88;2.30;;;12.30;99.90;;;;;;5092897;28;20244;-53
2022/11/08 00:38:39;;;;;;;9.50;2.28;;;12.30;99.90;;;;;;5093261;28;20169;-53
2022/11/08 00:41:05;;;;;;;11.27;2.60;;;12.30;99.90;;;;;;5093183;28;20165;-53
2022/11/08 00:43:30;;;;;;;5.80;2.13;;;12.30;99.90;;;;;;5092737;28;20215;-52
2022/11/08 00:45:56;;;;;;;6.55;2.25;;;12.40;99.90;;;;;;5092810;28;20218;-52
2022/11/08 00:48:21;;;;;;;8.30;2.45;;;12.40;99.90;;;;;;5092675;28;20182;-53
2022/11/08 00:50:47;;;;;;;5.50;1.42;;;12.40;99.90;;;;;;5092643;28;20169;-52
2022/11/08 00:53:12;;;;;;;10.68;2.80;;;12.50;99.90;;;;;;5092435;28;20214;-52
2022/11/08 00:55:38;;;;;;;9.10;2.88;;;12.40;99.90;;;;;;5092690;28;20262;-53
2022/11/08 00:58:04;;;;;;;3.63;1.60;;;12.40;99.90;;;;;;5074396;28;20169;-52
2022/11/08 01:00:30;;;;;;;6.38;2.05;;;12.40;99.90;;;;;;5092660;28;20176;-52
2022/11/08 01:05:39;;;;;;;9.10;1.90;;;12.50;99.90;;;;;;5092208;28;20217;-52
2022/11/08 01:08:05;;;;;;;5.15;1.55;;;12.50;99.90;;;;;;5092449;28;20177;-53
2022/11/08 01:10:31;;;;;;;8.60;2.20;;;12.50;99.90;;;;;;5092300;28;20254;-52
2022/11/08 01:12:57;;;;;;;10.70;2.42;;;12.50;99.90;;;;;;5092350;28;20168;-54
2022/11/08 01:15:22;;;;;;;8.48;2.08;;;12.50;99.90;;;;;;5092280;28;20169;-53
2022/11/08 01:17:48;;;;;;;6.05;1.95;;;12.60;99.90;;;;;;5092105;28;20256;-52
2022/11/08 01:20:14;;;;;;;13.63;4.10;;;12.60;99.90;;;;;;5092250;28;20625;-52
2022/11/08 01:22:39;;;;;;;4.95;2.30;;;12.50;99.90;;;;;;5092018;28;20235;-52
2022/11/08 01:25:05;;;;;;;4.32;1.98;;;12.50;99.90;;;;;;5092474;28;20172;-54
2022/11/08 01:27:31;;;;;;;9.18;2.75;;;12.50;99.90;;;;;;5092064;28;20190;-53
2022/11/08 01:29:57;;;;;;;7.32;2.28;;;12.50;99.90;;;;;;5092075;28;20169;-53
2022/11/08 01:32:23;;;;;;;12.35;4.70;;;12.50;99.90;;;;;;5092008;28;20157;-52
2022/11/08 01:34:48;;;;;;;12.55;4.72;;;12.50;99.90;;;;;;5092250;28;20176;-52
2022/11/08 01:37:14;;;;;;;6.38;2.03;;;12.50;99.90;;;;;;5092193;28;20184;-53
2022/11/08 01:39:40;;;;;;;4.03;2.25;;;12.50;99.90;;;;;;5092014;28;20168;-53
2022/11/08 01:42:05;;;;;;;8.18;2.10;;;12.50;99.90;;;;;;5092140;28;20557;-53
2022/11/08 01:44:31;;;;;;;7.95;3.08;;;12.40;99.90;;;;;;5091678;28;20703;-53
2022/11/08 01:46:56;;;;;;;7.05;2.22;;;12.40;99.90;;;;;;5091659;28;20634;-53
2022/11/08 01:49:32;;;;;;;10.30;2.30;;;12.40;99.90;;;;;;5091805;28;20177;-53
2022/11/08 01:52:00;;;;;;;6.60;2.05;;;12.40;99.90;;;;;;5091870;28;20169;-53
2022/11/08 01:55:13;;;;;;;2.95;1.92;;;12.40;99.90;;;;;;5091832;28;20169;-53
2022/11/08 01:57:59;;;;;;;4.00;1.83;;;12.50;99.90;;;;;;5086070;28;20657;-52
2022/11/08 02:00:25;;;;;;;5.63;1.80;;;12.50;99.90;;;;;;5091262;28;20197;-53
2022/11/08 02:03:00;;;;;;;7.65;2.13;;;12.40;99.90;;;;;;5091432;28;20263;-53
2022/11/08 02:05:28;;;;;;;5.07;2.08;;;12.50;99.90;;;;;;5091795;28;20176;-53
2022/11/08 02:08:06;;;;;;;6.63;1.95;;;12.40;99.90;;;;;;5091677;28;20172;-53
2022/11/08 02:10:41;;;;;;;3.83;1.83;;;12.40;99.90;;;;;;5091698;28;20636;-53
2022/11/08 02:13:10;;;;;;;4.00;1.60;;;12.30;99.90;;;;;;5092230;28;20168;-54
2022/11/08 02:15:35;;;;;;;6.75;2.15;;;12.30;99.90;;;;;;5092070;28;20158;-53
2022/11/08 02:18:01;;;;;;;6.63;1.80;;;12.30;99.90;;;;;;5091688;28;20170;-53
2022/11/08 02:20:27;;;;;;;3.17;1.98;;;12.20;99.90;;;;;;5091616;28;20629;-53
2022/11/08 02:23:01;;;;;;;7.10;1.95;;;12.20;99.90;;;;;;5091729;28;20291;-52
2022/11/08 02:25:27;;;;;;;6.70;1.75;;;12.20;99.90;;;;;;5091546;28;20188;-52
2022/11/08 02:27:52;;;;;;;8.23;2.25;;;12.10;99.90;;;;;;5091429;28;20177;-52
2022/11/08 02:30:18;;;;;;;5.47;1.83;;;12.10;99.90;;;;;;5091487;28;20184;-52
2022/11/08 02:32:44;;;;;;;6.32;2.17;;;12.10;99.90;;;;;;5091536;28;20173;-52
2022/11/08 02:35:18;;;;;;;6.07;1.92;;;12.10;99.90;;;;;;5091406;28;20248;-52
2022/11/08 02:37:44;;;;;;;11.88;2.40;;;12.00;99.90;;;;;;5091332;28;20575;-52
2022/11/08 02:40:10;;;;;;;7.50;2.67;;;12.00;99.90;;;;;;5091342;28;20170;-52
2022/11/08 02:42:39;;;;;;;4.90;1.98;;;11.90;99.90;;;;;;5091590;28;20227;-53
2022/11/08 02:45:06;;;;;;;3.25;2.15;;;11.90;99.90;;;;;;5091922;28;20195;-52
2022/11/08 02:47:32;;;;;;;5.13;2.25;;;11.90;99.90;;;;;;5091284;28;20177;-52
2022/11/08 02:49:57;;;;;;;8.43;1.90;;;11.90;99.90;;;;;;5093983;28;20173;-53
2022/11/08 02:52:23;;;;;;;8.70;2.60;;;12.00;99.90;;;;;;5095055;28;20198;-53
2022/11/08 02:54:48;;;;;;;10.07;2.67;;;11.90;99.90;;;;;;5094902;28;20172;-53
2022/11/08 02:57:14;;;;;;;6.90;2.30;;;11.90;99.90;;;;;;5094464;28;20169;-53
2022/11/08 02:59:39;;;;;;;7.68;2.63;;;11.80;99.90;;;;;;5094616;28;20169;-52
2022/11/08 03:02:05;;;;;;;9.18;3.05;;;11.80;99.90;;;;;;5095675;28;20213;-53
2022/11/08 03:04:30;;;;;;;6.10;2.47;;;11.70;99.90;;;;;;5094663;28;20714;-52
2022/11/08 03:06:56;;;;;;;3.75;2.33;;;11.60;99.90;;;;;;5094722;28;20165;-53
2022/11/08 03:09:22;;;;;;;3.85;2.30;;;11.50;99.90;;;;;;5094576;28;20208;-52
2022/11/08 03:11:47;;;;;;;5.38;2.33;;;11.50;99.90;;;;;;5094873;28;20176;-52
2022/11/08 03:14:13;;;;;;;8.15;2.60;;;11.40;99.90;;;;;;5094351;28;20527;-52
2022/11/08 03:16:38;;;;;;;10.32;3.00;;;11.40;99.90;;;;;;5094561;28;20545;-53
2022/11/08 03:19:04;;;;;;;4.45;2.30;;;11.40;99.90;;;;;;5095105;28;20197;-53
2022/11/08 03:21:29;;;;;;;7.78;3.17;;;11.30;99.90;;;;;;5094294;28;20165;-52
2022/11/08 03:23:55;;;;;;;5.47;2.58;;;11.30;99.90;;;;;;5094297;28;20640;-52
2022/11/08 03:26:21;;;;;;;6.47;3.10;;;11.30;99.90;;;;;;5094549;28;20169;-53
2022/11/08 03:28:46;;;;;;;6.43;2.92;;;11.20;99.90;;;;;;5094329;28;20205;-52
2022/11/08 03:31:12;;;;;;;6.07;3.42;;;11.10;99.90;;;;;;5094151;28;20184;-53
2022/11/08 03:33:37;;;;;;;8.52;2.58;;;11.20;99.90;;;;;;5094220;28;20166;-53
2022/11/08 03:36:04;;;;;;;6.20;2.72;;;11.20;99.90;;;;;;5094381;28;20172;-53
2022/11/08 03:38:29;;;;;;;7.72;3.08;;;11.20;99.90;;;;;;5094045;28;20193;-53
2022/11/08 03:40:55;;;;;;;7.40;3.00;;;11.20;99.90;;;;;;5094097;28;20244;-53
2022/11/08 03:43:20;;;;;;;6.50;2.25;;;11.20;99.90;;;;;;5093948;28;20205;-52
2022/11/08 03:45:46;;;;;;;8.75;2.95;;;11.10;99.90;;;;;;5093941;28;20222;-53
2022/11/08 03:48:11;;;;;;;4.53;2.53;;;11.10;99.90;;;;;;5094117;28;20169;-53
2022/11/08 03:50:37;;;;;;;7.63;2.83;;;11.10;99.90;;;;;;5094304;28;20507;-53
2022/11/08 03:53:03;;;;;;;5.93;2.70;;;11.10;99.90;;;;;;5093785;28;20169;-53
2022/11/08 03:55:28;;;;;;;9.50;2.80;;;11.20;99.90;;;;;;5075544;28;20161;-52
2022/11/08 03:57:54;;;;;;;7.75;2.60;;;11.20;99.90;;;;;;5093706;28;20624;-54
2022/11/08 04:00:24;;;;;;;4.30;2.33;;;11.20;99.90;;;;;;5092540;28;20207;-54
2022/11/08 04:02:50;;;;;;;7.03;2.25;;;11.20;99.90;;;;;;5093500;28;20576;-52
2022/11/08 04:05:16;;;;;;;7.35;2.13;;;11.20;99.90;;;;;;5093517;28;20157;-53
2022/11/08 04:07:42;;;;;;;7.28;2.10;;;11.20;99.90;;;;;;5093505;28;20170;-53
2022/11/08 04:10:09;;;;;;;5.28;2.38;;;11.20;99.90;;;;;;5093705;28;20165;-53
2022/11/08 04:15:22;;;;;;;8.27;2.28;;;11.30;99.90;;;;;;5093356;28;20168;-52
2022/11/08 04:23:35;;;;;;;4.57;2.15;;;11.30;99.90;;;;;;5093347;28;20216;-52
2022/11/08 04:26:06;;;;;;;6.53;2.47;;;11.30;99.90;;;;;;5092752;28;20167;-52
2022/11/08 04:28:34;;;;;;;11.65;2.17;;;11.30;99.90;;;;;;5093049;28;20530;-53
2022/11/08 04:31:05;;;;;;;4.45;2.05;;;11.40;99.90;;;;;;5093005;28;20223;-52
2022/11/08 04:33:31;;;;;;;9.00;2.13;;;11.30;99.90;;;;;;5093102;28;20272;-52
2022/11/08 04:36:06;;;;;;;7.85;2.60;;;11.30;99.90;;;;;;5093142;28;20684;-52
2022/11/08 04:38:31;;;;;;;6.40;2.30;;;11.20;99.90;;;;;;5093159;28;20168;-53
2022/11/08 04:41:03;;;;;;;7.82;2.38;;;11.20;99.90;;;;;;5093082;28;20315;-52
2022/11/08 04:43:29;;;;;;;4.95;2.42;;;11.10;99.90;;;;;;5092374;28;20205;-52
2022/11/08 04:46:03;;;;;;;3.65;2.10;;;11.10;99.90;;;;;;5092743;28;20184;-52
2022/11/08 04:48:29;;;;;;;9.75;2.90;;;11.00;99.90;;;;;;5092705;28;20626;-53
2022/11/08 04:50:55;;;;;;;5.03;2.42;;;11.10;99.90;;;;;;5092645;28;20154;-52
2022/11/08 04:53:21;;;;;;;6.22;2.75;;;11.10;99.90;;;;;;5092639;28;20209;-52
2022/11/08 04:55:46;;;;;;;8.65;2.78;;;11.00;99.90;;;;;;5092582;28;20637;-53
2022/11/08 04:58:12;;;;;;;6.72;2.42;;;11.00;99.90;;;;;;5092533;28;20245;-53
2022/11/08 05:00:38;;;;;;;8.80;2.60;;;10.90;99.90;;;;;;5092408;28;20185;-52
2022/11/08 05:03:03;;;;;;;5.13;2.40;;;10.90;99.90;;;;;;5092813;28;20278;-56
2022/11/08 05:05:29;;;;;;;6.30;2.60;;;10.90;99.90;;;;;;5092392;28;20173;-56
2022/11/08 05:07:54;;;;;;;4.72;2.50;;;10.80;99.90;;;;;;5092307;28;20310;-56
2022/11/08 05:10:20;;;;;;;5.07;2.90;;;10.80;99.90;;;;;;5092508;28;20215;-53
2022/11/08 05:12:45;;;;;;;7.22;2.75;;;10.80;99.90;;;;;;5091584;28;20575;-55
2022/11/08 05:15:11;;;;;;;7.15;3.30;;;10.70;99.90;;;;;;5092216;28;20629;-55
2022/11/08 05:17:37;;;;;;;5.85;3.10;;;10.70;99.90;;;;;;5092740;28;20176;-52
2022/11/08 05:25:32;;;;;;;6.10;3.55;;;10.60;99.90;;;;;;5092337;28;20196;-55
2022/11/08 05:27:58;;;;;;;6.93;3.30;;;10.60;99.90;;;;;;5092136;28;20676;-53
2022/11/08 05:30:23;;;;;;;6.78;3.88;;;10.60;99.90;;;;;;5092076;28;20176;-53
2022/11/08 05:32:52;;;;;;;7.88;3.53;;;10.50;99.90;;;;;;5092104;28;20179;-53
2022/11/08 05:35:20;;;;;;;10.63;3.75;;;10.50;99.90;;;;;;5091985;28;20161;-53
2022/11/08 05:37:46;;;;;;;7.18;3.83;;;10.50;99.90;;;;;;5092150;28;20234;-53
2022/11/08 05:40:11;;;;;;;10.25;4.22;;;10.60;99.90;;;;;;5091947;28;20169;-53
2022/11/08 05:42:37;;;;;;;7.82;4.40;;;10.60;99.90;;;;;;5092258;28;20205;-53
2022/11/08 05:45:03;;;;;;;10.10;4.63;;;10.60;99.90;;;;;;5092212;28;20625;-53
2022/11/08 05:47:28;;;;;;;5.55;3.80;;;10.60;99.90;;;;;;5091629;28;20274;-53
2022/11/08 05:49:54;;;;;;;7.25;4.20;;;10.60;99.90;;;;;;5073235;28;20167;-53
2022/11/08 05:52:19;;;;;;;13.27;5.75;;;10.60;99.90;;;;;;5091695;28;20192;-53
2022/11/08 05:54:45;;;;;;;11.13;5.85;;;10.60;99.90;;;;;;5092130;28;20193;-53
2022/11/08 05:57:11;;;;;;;12.32;5.35;;;10.50;99.90;;;;;;5091794;28;20179;-53
2022/11/08 05:59:36;;;;;;;8.40;4.93;;;10.50;99.90;;;;;;5091965;28;20177;-53
2022/11/08 06:02:02;;;;;;;12.25;5.75;;;10.40;99.90;;;;;;5091812;28;20209;-53
2022/11/08 06:04:27;;;;;;;10.25;5.80;;;10.40;99.90;;;;;;5091482;28;20308;-53
2022/11/08 06:06:53;;;;;;;14.57;5.95;;;10.40;99.90;;;;;;5091582;28;20201;-53
2022/11/08 06:09:18;;;;;;;11.38;5.28;;;10.40;99.90;;;;;;5091598;28;20689;-52
2022/11/08 06:11:44;;;;;;;8.27;4.68;;;10.40;99.90;;;;;;5091527;28;20532;-53
2022/11/08 06:14:09;;;;;;;7.07;4.53;;;10.40;99.90;;;;;;5091642;28;20163;-53
2022/11/08 06:16:35;;;;;;;6.47;4.13;;;10.40;99.90;;;;;;5091888;28;20165;-53
2022/11/08 06:19:00;;;;;;;7.28;3.63;;;10.40;99.90;;;;;;5091527;28;20172;-54
2022/11/08 06:21:26;;;;;;;7.25;3.92;;;10.50;99.90;;;;;;5091538;28;20172;-53
2022/11/08 06:23:53;;;;;;;6.03;3.83;;;10.50;99.90;;;;;;5092455;28;20322;-53
2022/11/08 06:26:19;;;;;;;4.82;3.20;;;10.50;99.90;;;;;;5095297;28;20180;-53
2022/11/08 06:28:45;;;;;;;6.95;3.10;;;10.50;99.90;;;;;;5095333;28;20165;-53
2022/11/08 06:31:10;;;;;;;9.02;3.20;;;10.50;99.90;;;;;;5095314;28;20189;-52
2022/11/08 06:33:36;;;;;;;9.70;4.03;;;10.50;99.90;;;;;;5095620;28;20157;-53
2022/11/08 06:36:02;;;;;;;7.13;3.28;;;10.50;99.90;;;;;;5095289;28;20248;-53
2022/11/08 06:38:28;;;;;;;7.32;2.88;;;10.50;99.90;;;;;;5095158;28;20168;-52
2022/11/08 06:40:53;;;;;;;5.28;3.38;;;10.50;99.90;;;;;;5095104;28;20176;-52
2022/11/08 06:43:19;;;;;;;5.60;3.17;;;10.50;99.90;;;;;;5094730;28;20201;-53
2022/11/08 06:45:45;;;;;;;9.82;3.40;;;10.50;99.90;;;;;;5094447;28;20157;-52
2022/11/08 06:48:10;;;;;;;5.28;2.80;;;10.50;99.90;;;;;;5095015;28;20191;-52
2022/11/08 06:50:36;;;;;;;5.95;2.70;;;10.50;99.90;;;;;;5095351;28;20255;-53
2022/11/08 06:53:05;;;;;;;5.60;3.28;;;10.50;99.90;;;;;;5094795;28;20516;-53
2022/11/08 06:55:31;;;;;;;8.55;2.90;;;10.60;99.90;;;;;;5094714;28;20177;-53
2022/11/08 06:57:56;;;;;;;4.15;2.58;;;10.60;99.90;;;;;;5094359;28;20175;-53
2022/11/08 07:00:22;;;;;;;6.53;3.08;;;10.60;99.90;;;;;;5094432;28;20240;-55
2022/11/08 07:02:52;;;;;;;5.95;3.10;;;10.60;99.90;;;;;;5094455;28;20225;-55
2022/11/08 07:05:18;;;;;;;4.43;2.50;;;10.70;99.90;;;;;;5094489;28;20613;-55
2022/11/08 07:07:44;;;;;;;7.70;2.92;;;10.70;99.90;;;;;;5094590;28;20222;-56
2022/11/08 07:10:10;;;;;;;6.53;2.65;;;10.70;99.90;;;;;;5075630;28;20524;-55
2022/11/08 07:12:35;;;;;;;6.60;3.38;;;10.70;99.90;;;;;;5094694;28;20177;-55
2022/11/08 07:15:02;;;;;;;6.78;3.03;;;10.80;99.90;;;;;;5094270;28;20170;-58
2022/11/08 07:17:27;;;;;;;6.00;2.55;;;10.80;99.90;;;;;;5094689;28;20174;-56
2022/11/08 07:19:53;;;;;;;4.68;2.75;;;10.70;99.90;;;;;;5094153;28;20173;-55
2022/11/08 07:22:18;;;;;;;10.40;3.15;;;10.80;99.90;;;;;;5094252;28;20209;-54
2022/11/08 07:24:44;;;;;;;3.55;2.40;;;10.80;99.90;;;;;;5094528;28;20174;-54
2022/11/08 07:27:09;;;;;;;8.40;3.10;;;10.80;99.90;;;;;;5093840;28;20177;-54
2022/11/08 07:29:35;;;;;;;5.72;2.72;;;10.80;99.90;;;;;;5094496;28;20629;-54
2022/11/08 07:32:01;;;;;;;6.45;3.45;;;10.80;99.90;;;;;;5094193;28;20189;-54
2022/11/08 07:34:26;;;;;;;7.93;2.60;;;10.80;99.90;;;;;;5094054;28;20165;-53
2022/11/08 07:36:52;;;;;;;6.88;2.45;;;10.80;99.90;;;;;;5093995;28;20247;-54
2022/11/08 07:39:18;;;;;;;11.02;3.72;;;10.80;99.90;;;;;;5093817;28;20621;-58
2022/11/08 07:41:43;;;;;;;4.95;2.45;;;10.90;99.90;;;;;;5093671;28;20227;-51
2022/11/08 07:44:09;;;;;;;6.57;2.83;;;11.00;99.90;;;;;;5093418;28;20192;-53
2022/11/08 07:46:34;;;;;;;7.43;2.95;;;11.10;99.90;;;;;;5093819;28;20165;-54
2022/11/08 07:49:00;;;;;;;8.13;3.30;;;11.20;99.90;;;;;;5093267;28;20170;-52
2022/11/08 07:51:25;;;;;;;7.00;2.20;;;11.20;99.90;;;;;;5091448;28;20189;-52
2022/11/08 07:53:51;;;;;;;7.60;2.97;;;11.40;99.90;;;;;;5091868;28;20204;-52
2022/11/08 07:56:16;;;;;;;7.13;3.30;;;11.40;99.90;;;;;;5091768;28;20197;-52
2022/11/08 07:58:42;;;;;;;5.00;2.60;;;11.50;99.90;;;;;;5091844;28;20166;-51
2022/11/08 08:01:08;;;;;;;3.25;2.10;;;11.60;99.90;;;;;;5091777;28;20174;-51
2022/11/08 08:03:33;;;;;;;3.35;2.65;;;11.70;99.90;;;;;;5091939;28;20212;-52
2022/11/08 08:05:59;;;;;;;8.90;4.10;;;11.80;99.90;;;;;;5075034;28;20170;-52
2022/11/08 08:08:24;;;;;;;3.70;2.67;;;11.90;99.90;;;;;;5091607;28;20168;-52
2022/11/08 08:10:50;;;;;;;6.97;2.65;;;11.90;99.90;;;;;;5091409;28;20166;-51
2022/11/08 08:13:15;;;;;;;6.50;2.13;;;11.90;99.90;;;;;;5091374;28;20302;-51
2022/11/08 08:15:41;;;;;;;2.78;1.92;;;12.00;99.90;;;;;;5091420;28;20165;-53
2022/11/08 08:18:07;;;;;;;1.80;1.50;;;12.10;99.90;;;;;;5091541;28;20170;-52
2022/11/08 08:20:34;;;;;;;9.55;5.00;;;12.10;99.90;;;;;;5091532;28;20472;-52
2022/11/08 08:23:00;;;;;;;7.80;3.08;;;12.30;99.90;;;;;;5092577;28;20238;-52
2022/11/08 08:25:28;;;;;;;6.15;2.55;;;12.40;99.90;;;;;;5092939;28;20161;-52
2022/11/08 08:27:55;;;;;;;4.60;1.73;;;12.50;99.90;;;;;;5093157;28;20168;-52
2022/11/08 08:30:23;;;;;;;5.63;2.10;;;12.50;99.90;;;;;;5093260;28;20169;-52
2022/11/08 08:32:49;;;;;;;4.80;1.40;;;12.50;99.90;;;;;;5093291;28;20310;-52
2022/11/08 08:35:15;;;;;;;5.88;3.53;;;12.60;99.90;;;;;;5093013;28;20177;-52
2022/11/08 08:37:40;;;;;;;4.10;1.90;;;12.60;99.90;;;;;;5092993;28;20580;-51
2022/11/08 08:40:07;;;;;;;2.80;1.88;;;12.60;99.90;;;;;;5093447;28;20259;-52
2022/11/08 08:42:33;;;;;;;3.88;2.35;;;12.60;99.90;;;;;;5093054;28;20269;-52
2022/11/08 08:44:59;;;;;;;3.67;2.17;;;12.70;99.90;;;;;;5092757;28;20169;-52
2022/11/08 08:47:25;;;;;;;8.85;3.90;;;12.70;99.90;;;;;;5092137;28;20162;-52
2022/11/08 08:49:51;;;;;;;3.22;2.10;;;12.70;99.90;;;;;;5092630;28;20172;-52
2022/11/08 08:52:17;;;;;;;5.20;2.95;;;12.70;99.90;;;;;;5092615;28;20169;-52
2022/11/08 08:54:42;;;;;;;5.35;3.15;;;12.70;99.90;;;;;;5092700;28;20165;-52
2022/11/08 08:57:08;;;;;;;5.90;2.47;;;12.70;99.90;;;;;;5092836;28;20208;-52
2022/11/08 08:59:33;;;;;;;3.25;1.77;;;12.70;99.90;;;;;;5092890;28;20157;-52
2022/11/08 09:01:59;;;;;;;6.82;3.50;;;12.70;99.90;;;;;;5092301;28;20197;-52
2022/11/08 09:04:26;;;;;;;2.03;1.50;;;12.70;99.90;;;;;;5092189;28;20267;-52
2022/11/08 09:06:52;;;;;;;2.42;1.75;;;12.80;99.90;;;;;;5092612;28;20550;-52
2022/11/08 09:09:18;;;;;;;4.05;2.03;;;12.80;99.90;;;;;;5092314;28;20169;-52
2022/11/08 09:11:43;;;;;;;3.60;2.03;;;12.80;99.90;;;;;;5092195;28;20161;-53
2022/11/08 09:14:09;;;;;;;3.15;1.50;;;12.80;99.90;;;;;;5092311;28;20299;-52
2022/11/08 09:16:34;;;;;;;10.50;2.42;;;12.80;99.90;;;;;;5074376;28;20173;-51
2022/11/08 09:19:00;;;;;;;1.52;1.40;;;12.80;99.90;;;;;;5074086;28;20181;-51
2022/11/08 09:21:26;;;;;;;6.03;1.67;;;12.80;99.90;;;;;;5073929;28;20173;-52
2022/11/08 09:23:51;;;;;;;2.88;2.00;;;12.90;99.90;;;;;;5092012;28;20713;-52
2022/11/08 09:26:17;;;;;;;2.63;1.55;;;12.90;99.90;;;;;;5073809;28;20165;-52
2022/11/08 09:28:42;;;;;;;2.40;1.42;;;12.90;99.90;;;;;;5092001;28;20177;-52
2022/11/08 09:31:10;;;;;;;2.65;1.52;;;12.90;99.90;;;;;;5092112;28;20162;-52
2022/11/08 09:33:37;;;;;;;3.88;1.95;;;12.90;99.90;;;;;;5092340;28;20154;-52
2022/11/08 09:36:07;;;;;;;3.47;1.63;;;12.90;99.90;;;;;;5092542;28;20173;-52
2022/11/08 09:38:32;;;;;;;2.95;1.70;;;13.00;99.90;;;;;;5092395;28;20633;-52
2022/11/08 09:41:16;;;;;;;2.05;1.42;;;13.00;99.90;;;;;;5091846;28;20173;-52
2022/11/08 09:43:42;;;;;;;2.72;1.70;;;13.00;99.90;;;;;;5091817;28;20201;-52
2022/11/08 09:46:10;;;;;;;4.47;2.78;;;13.10;99.90;;;;;;5092018;28;20704;-52
2022/11/08 09:48:41;;;;;;;3.95;2.65;;;13.10;99.90;;;;;;5092404;28;20200;-51
2022/11/08 09:51:17;;;;;;;3.60;1.90;;;13.10;99.90;;;;;;5091783;28;20166;-52
2022/11/08 09:53:54;;;;;;;2.47;1.80;;;13.20;99.90;;;;;;5091762;28;20248;-52
2022/11/08 09:56:33;;;;;;;3.25;1.90;;;13.30;99.90;;;;;;5091644;28;20187;-52
2022/11/08 09:59:14;;;;;;;3.78;1.60;;;13.30;99.90;;;;;;5093374;28;20231;-53
2022/11/08 10:01:41;;;;;;;3.63;1.70;;;13.30;99.90;;;;;;5095880;28;20244;-52
2022/11/08 10:04:20;;;;;;;3.92;1.60;;;13.40;99.90;;;;;;5095739;28;20236;-53
2022/11/08 10:06:48;;;;;;;4.97;2.10;;;13.40;99.90;;;;;;5095633;28;20161;-53
2022/11/08 10:09:23;;;;;;;2.10;1.73;;;13.50;99.90;;;;;;5095682;28;20177;-53
2022/11/08 10:12:24;;;;;;;2.03;1.70;;;13.50;99.90;;;;;;5077417;28;20164;-52
2022/11/08 10:15:17;;;;;;;2.85;1.60;;;13.50;99.90;;;;;;5071810;28;20275;-54
2022/11/08 10:18:02;;;;;;;3.13;1.50;;;13.50;99.90;;;;;;5095495;28;20637;-54
2022/11/08 10:20:30;;;;;;;4.20;1.60;;;13.60;99.90;;;;;;5095523;28;20596;-53
2022/11/08 10:23:12;;;;;;;2.40;1.75;;;13.60;99.90;;;;;;5095400;28;20201;-53
2022/11/08 10:26:03;;;;;;;2.50;1.92;;;13.70;99.90;;;;;;5095525;28;20241;-52
2022/11/08 10:28:38;;;;;;;3.35;1.85;;;13.80;99.90;;;;;;5094375;28;20272;-51
2022/11/08 10:31:05;;;;;;;2.55;1.45;;;13.90;99.90;;;;;;5095598;28;20176;-51
2022/11/08 10:33:40;;;;;;;3.75;1.60;;;14.00;99.90;;;;;;5095463;28;20676;-52
2022/11/08 10:36:24;;;;;;;3.58;1.83;;;14.20;99.90;;;;;;5095189;28;20256;-52
2022/11/08 10:39:00;;;;;;;3.08;1.67;;;14.40;99.90;;;;;;5076919;28;20169;-51
2022/11/08 10:41:45;;;;;;;2.70;1.63;;;14.50;99.90;;;;;;5095071;28;20640;-52
2022/11/08 10:44:19;;;;;;;4.00;1.58;;;14.60;99.90;;;;;;5095279;28;20173;-51
2022/11/08 10:46:48;;;;;;;3.25;1.90;;;14.60;99.90;;;;;;5095035;28;20679;-51
2022/11/08 10:49:30;;;;;;;2.03;1.80;;;14.70;99.90;;;;;;5094838;28;20179;-52
2022/11/08 10:52:11;;;;;;;2.55;1.50;;;14.70;99.90;;;;;;5094973;28;20621;-52
2022/11/08 10:54:49;;;;;;;6.63;1.77;;;14.80;99.90;;;;;;5094787;28;20173;-52
2022/11/08 10:57:26;;;;;;;5.25;1.98;;;15.00;99.90;;;;;;5094841;28;20168;-52
2022/11/08 10:59:53;;;;;;;4.13;2.08;;;15.20;99.90;;;;;;5094802;28;20169;-52
2022/11/08 11:02:23;;;;;;;3.97;2.00;;;15.20;99.90;;;;;;5094451;28;20212;-51
2022/11/08 11:04:50;;;;;;;1.73;1.38;;;15.30;99.90;;;;;;5094959;28;20234;-52
2022/11/08 11:07:32;;;;;;;2.10;1.58;;;15.40;99.90;;;;;;5094717;28;20161;-52
2022/11/08 11:10:15;;;;;;;3.10;1.80;;;15.70;99.90;;;;;;5093848;28;20176;-52
2022/11/08 11:12:40;;;;;;;3.03;1.60;;;15.70;99.90;;;;;;5094464;28;20157;-52
2022/11/08 11:15:14;;;;;;;2.70;1.85;;;15.50;99.90;;;;;;5094560;28;20161;-52
2022/11/08 11:17:42;;;;;;;1.73;1.35;;;15.50;99.90;;;;;;5094416;28;20173;-51
2022/11/08 11:20:20;;;;;;;3.17;1.50;;;15.50;99.90;;;;;;5094328;28;20166;-51
2022/11/08 11:22:46;;;;;;;4.70;1.70;;;15.50;99.90;;;;;;5094401;28;20558;-51
2022/11/08 11:25:18;;;;;;;1.80;1.50;;;15.50;99.90;;;;;;5094576;28;20162;-51
2022/11/08 11:27:53;;;;;;;3.08;2.00;;;15.60;99.90;;;;;;5094126;28;20178;-51
2022/11/08 11:30:33;;;;;;;3.58;1.80;;;15.60;99.90;;;;;;5094427;28;20196;-51
2022/11/08 11:33:05;;;;;;;3.95;1.77;;;15.40;99.90;;;;;;5094121;28;20173;-52
2022/11/08 11:35:38;;;;;;;3.97;1.67;;;15.40;99.90;;;;;;5094179;28;20616;-52
2022/11/08 11:38:11;;;;;;;1.50;1.40;;;15.40;99.90;;;;;;5094078;28;20177;-51
2022/11/08 11:40:46;;;;;;;3.53;1.67;;;15.50;99.90;;;;;;5093876;28;20193;-51
2022/11/08 11:43:27;;;;;;;2.83;1.70;;;15.60;99.90;;;;;;5093643;28;20659;-51
2022/11/08 11:46:08;;;;;;;3.15;1.60;;;15.80;99.90;;;;;;5094018;28;20552;-51
2022/11/08 11:48:42;;;;;;;3.08;1.70;;;15.90;99.90;;;;;;5094045;28;20188;-51
2022/11/08 11:51:09;;;;;;;2.83;1.75;;;15.80;99.90;;;;;;5093753;28;20161;-51
2022/11/08 11:53:36;;;;;;;3.20;2.08;;;15.80;99.90;;;;;;5076030;28;20576;-51
2022/11/08 11:56:01;;;;;;;4.45;1.98;;;15.80;99.90;;;;;;5094392;28;20173;-51
2022/11/08 11:58:56;;;;;;;3.92;2.15;;;15.80;99.90;;;;;;5093719;28;20568;-51
2022/11/08 12:01:43;;;;;;;5.60;2.13;;;15.80;99.90;;;;;;5071118;28;20227;-51
2022/11/08 12:04:27;;;;;;;2.03;1.85;;;15.90;99.90;;;;;;5093336;28;20692;-51
2022/11/08 12:07:25;;;;;;;3.53;1.90;;;15.90;99.90;;;;;;5093802;28;20204;-51
2022/11/08 12:10:35;;;;;;;4.10;1.80;;;16.00;99.90;;;;;;5093691;28;20179;-51
2022/11/08 12:13:00;;;;;;;3.15;1.80;;;16.00;99.90;;;;;;5093214;28;20162;-51
2022/11/08 12:15:48;;;;;;;4.72;1.80;;;16.10;99.90;;;;;;5093159;28;20176;-51
2022/11/08 12:18:41;;;;;;;6.43;2.08;;;16.20;99.90;;;;;;5092726;28;20246;-51
2022/11/08 12:21:13;;;;;;;3.33;1.83;;;16.20;99.90;;;;;;5074016;28;20218;-53
2022/11/08 12:23:44;;;;;;;4.38;3.03;;;16.20;99.90;;;;;;5093047;28;20249;-52
2022/11/08 12:26:32;;;;;;;4.43;1.70;;;16.20;99.90;;;;;;5093002;28;20158;-52
2022/11/08 12:29:39;;;;;;;3.42;1.92;;;16.30;99.90;;;;;;5093413;28;20248;-51
2022/11/08 12:32:20;;;;;;;12.68;4.57;;;16.40;99.90;;;;;;5092423;28;20256;-51
2022/11/08 12:34:45;;;;;;;18.48;7.70;;;16.40;99.90;;;;;;5092976;28;20165;-51
2022/11/08 12:37:20;;;;;;;6.82;2.97;;;16.40;99.90;;;;;;5092266;28;20216;-52
2022/11/08 12:39:50;;;;;;;10.23;3.10;;;16.30;99.90;;;;;;5092521;28;20164;-51
2022/11/08 12:42:48;;;;;;;14.02;5.60;;;16.30;99.90;;;;;;5091680;28;20193;-52
2022/11/08 12:45:31;;;;;;;7.68;3.03;;;16.30;99.90;;;;;;5092541;28;20169;-50
2022/11/08 12:48:30;;;;;;;6.72;2.33;;;16.30;99.90;;;;;;5091890;28;20168;-51
2022/11/08 12:51:05;;;;;;;3.08;1.80;;;16.30;99.90;;;;;;5092357;28;20200;-53
2022/11/08 12:53:30;;;;;;;7.15;2.53;;;16.30;99.90;;;;;;5092310;28;20841;-52
2022/11/08 12:55:57;;;;;;;4.70;2.42;;;16.40;99.90;;;;;;5092019;28;20268;-51
2022/11/08 12:58:31;;;;;;;8.43;2.47;;;16.30;99.90;;;;;;5092089;28;20234;-52
2022/11/08 13:01:02;;;;;;;2.92;1.50;;;16.30;99.90;;;;;;5091081;28;20173;-51
2022/11/08 13:03:50;;;;;;;5.88;1.77;;;16.30;99.90;;;;;;5091688;28;20224;-53
2022/11/08 13:06:39;;;;;;;5.53;1.77;;;16.40;99.90;;;;;;5091822;28;20164;-51
2022/11/08 13:09:34;;;;;;;2.53;2.00;;;16.40;99.90;;;;;;5092132;28;20166;-54
2022/11/08 13:12:30;;;;;;;3.70;1.75;;;16.40;99.90;;;;;;5064817;28;20318;-53
2022/11/08 13:14:59;;;;;;;8.75;2.33;;;16.40;99.90;;;;;;5092027;28;20731;-54
2022/11/08 13:17:26;;;;;;;5.05;2.40;;;16.40;99.90;;;;;;5091662;28;20157;-54
2022/11/08 13:20:03;;;;;;;3.22;1.90;;;16.50;99.90;;;;;;5091962;28;20684;-54
2022/11/08 13:22:29;;;;;;;5.53;2.22;;;16.50;99.90;;;;;;5092016;28;20242;-54
2022/11/08 13:24:55;;;;;;;4.25;1.48;;;16.40;99.90;;;;;;5091852;28;20169;-53